• Join FlightAware (Why Join?)
  • Login
  • US Flag 
01:58AM EDT


 

Airport Tracker/Info


-or-


 

Live Flight TrackerFlight Track Log ✈ UAL1058 ✈ 20-Sep-2013 ✈ KIAD - KDEN

Flight Track Log - Related Links

Times and Time Zones

All times are in EDT time to prevent confusion due to time zone crossing. See the UAL1058 flight status page for this flight to view local times or setup timezone preferences in your user account.

Time Position Orientation Groundspeed Altitude Reporting Facility
EDT Latitude Longitude Course Direction KTS MPH feet Rate Location/Type
07:14PM 38.9500 -77.5333 256° West 189 217 1,800  Level Potomac TRACON
07:15PM 38.9333 -77.6167 256° West 235 270 4,400 2,340 Climbing Potomac TRACON
07:16PM 38.9078 -77.6858 245° Southwest 246 283 6,500 2,460 Climbing Washington Center
07:17PM 38.8581 -77.7775 235° Southwest 280 322 9,400 2,160 Climbing Washington Center
07:18PM 38.8042 -77.8747 235° Southwest 312 359 10,900 1,800 Climbing Washington Center
07:19PM 38.8017 -77.9997 269° West 336 387 13,000 2,280 Climbing Washington Center
07:20PM 38.8344 -78.1314 288° West 347 399 15,400 2,640 Climbing Washington Center
07:21PM 38.8525 -78.2653 280° West 370 426 18,400 2,460 Climbing Washington Center
07:22PM 38.8514 -78.4011 269° West 383 441 20,500 1,980 Climbing Washington Center
07:23PM 38.8500 -78.5425 269° West 388 447 22,400 1,680 Climbing Washington Center
07:24PM 38.8486 -78.6864 269° West 393 452 23,900 1,260 Climbing Washington Center
07:26PM 38.8431 -78.9714 269° West 419 482 26,200 1,260 Climbing Washington Center
07:27PM 38.8406 -79.1258 269° West 429 494 27,700 1,020 Climbing Washington Center
07:28PM 38.8400 -79.2856 270° West 442 509 28,300 540 Climbing Washington Center
07:29PM 38.8369 -79.4508 269° West 452 520 28,800 960 Climbing Washington Center
07:30PM 38.8353 -79.6267 269° West 476 548 30,300 1,620 Climbing Washington Center
07:31PM 38.8292 -79.8047 268° West 477 549 32,100 1,620 Climbing Washington Center
07:32PM 38.8256 -79.9644 268° West 463 533 33,600 1,200 Climbing Washington Center
07:33PM 38.8206 -80.1075 267° West 439 505 34,700 1,080 Climbing Indianapolis Center
07:34PM 38.8156 -80.2914 268° West 432 497 36,000 600 Climbing Indianapolis Center
07:35PM 38.8100 -80.4433 267° West 428 493 36,000  Level Indianapolis Center
07:36PM 38.8067 -80.5942 268° West 425 489 36,000  Level Indianapolis Center
07:37PM 38.8025 -80.7444 268° West 424 488 36,000  Level Indianapolis Center
07:38PM 38.7975 -80.8914 268° West 416 479 36,000  Level Indianapolis Center
07:39PM 38.7925 -81.0364 268° West 411 473 36,000  Level Indianapolis Center
07:40PM 38.7875 -81.1806 267° West 407 468 36,000  Level Indianapolis Center
07:41PM 38.7831 -81.3250 268° West 407 468 36,000  Level Indianapolis Center
07:42PM 38.7758 -81.4917 267° West 407 468 36,000  Level Indianapolis Center
07:43PM 38.7706 -81.6378 267° West 411 473 36,000  Level Indianapolis Center
07:44PM 38.7656 -81.7842 268° West 415 478 36,000 -540 Level Indianapolis Center
07:45PM 38.7586 -81.9286 267° West 410 472 34,900 -1,440 Descending Indianapolis Center
07:46PM 38.7519 -82.0761 267° West 416 479 33,100 -1,920 Descending Indianapolis Center
07:47PM 38.7461 -82.2531 268° West 417 480 31,000 -1,560 Descending Indianapolis Center
07:48PM 38.7400 -82.4028 267° West 420 483 30,000 -540 Descending Indianapolis Center
07:49PM 38.7342 -82.5536 267° West 424 488 30,000  Level Indianapolis Center
07:50PM 38.7278 -82.7014 267° West 419 482 30,000  Level Indianapolis Center
07:51PM 38.6961 -82.8428 254° West 416 479 30,000  Level Indianapolis Center
07:52PM 38.6589 -82.9831 251° West 417 480 30,000 -120 Level Indianapolis Center
07:53PM 38.6175 -83.1442 252° West 413 475 29,800 -600 Descending Indianapolis Center
07:54PM 38.5808 -83.2833 251° West 413 475 28,800 -900 Descending Indianapolis Center
07:55PM 38.5461 -83.4239 253° West 415 478 28,000 -420 Descending Indianapolis Center
07:56PM 38.5094 -83.5658 252° West 419 482 28,000  Level Indianapolis Center
07:57PM 38.4767 -83.7078 254° West 419 482 28,000  Level Indianapolis Center
07:59PM 38.4433 -83.8494 253° West 416 479 28,000  Level Indianapolis Center
08:00PM 38.3942 -84.0106 249° West 419 482 28,000  Level Indianapolis Center
08:01PM 38.3519 -84.1464 248° West 415 478 28,000  Level Indianapolis Center
08:02PM 38.3097 -84.2808 248° West 409 471 28,000  Level Indianapolis Center
08:03PM 38.2672 -84.4131 248° West 405 466 28,000  Level Indianapolis Center
08:04PM 38.2208 -84.5419 245° Southwest 404 465 28,000  Level Indianapolis Center
08:05PM 38.1767 -84.6717 247° West 400 460 28,000  Level Indianapolis Center
08:06PM 38.1319 -84.8014 246° West 400 460 28,000  Level Indianapolis Center
08:07PM 38.0814 -84.9503 247° West 397 457 28,000  Level Indianapolis Center
08:08PM 38.0378 -85.0772 246° West 393 452 28,000  Level Indianapolis Center
08:09PM 37.9961 -85.2089 248° West 392 451 28,000  Level Indianapolis Center
08:10PM 37.9731 -85.3422 258° West 393 452 28,000  Level Indianapolis Center
08:11PM 37.9772 -85.4797 272° West 398 458 28,000  Level Indianapolis Center
08:12PM 37.9967 -85.6164 280° West 394 453 28,000  Level Indianapolis Center
08:13PM 38.0172 -85.7522 281° West 392 451 28,000  Level Indianapolis Center
08:14PM 38.0353 -85.8906 279° West 396 456 28,000  Level Indianapolis Center
08:15PM 38.0533 -86.0269 280° West 393 452 28,000  Level Indianapolis Center
08:16PM 38.0728 -86.1639 280° West 392 451 28,000  Level Indianapolis Center
08:17PM 38.0903 -86.3000 279° West 391 450 28,000  Level Indianapolis Center
08:18PM 38.1150 -86.4622 281° West 390 449 28,000  Level Indianapolis Center
08:19PM 38.1347 -86.5972 281° West 387 445 28,000  Level Indianapolis Center
08:20PM 38.1567 -86.7344 282° West 392 451 28,000  Level Indianapolis Center
08:21PM 38.1783 -86.8714 281° West 393 452 28,000  Level Indianapolis Center
08:22PM 38.1994 -87.0086 281° West 390 449 28,000  Level Indianapolis Center
08:23PM 38.2217 -87.1506 281° West 395 455 28,000 300 Level Indianapolis Center
08:24PM 38.2450 -87.2897 282° West 394 453 28,700 1,020 Climbing Indianapolis Center
08:25PM 38.2681 -87.4272 282° West 394 453 30,100 1,260 Climbing Indianapolis Center
08:26PM 38.2919 -87.5611 283° West 390 449 31,400 1,020 Climbing Indianapolis Center
08:27PM 38.3197 -87.6967 285° West 391 450 32,300 960 Climbing Indianapolis Center
08:28PM 38.3481 -87.8336 285° West 398 458 33,400 1,140 Climbing Indianapolis Center
08:29PM 38.3761 -87.9694 285° West 396 456 34,700 1,020 Climbing Indianapolis Center
08:30PM 38.4033 -88.1019 285° West 388 447 35,500 780 Climbing Indianapolis Center
08:31PM 38.4197 -88.1831 284° West 390 449 36,000 300 Climbing Kansas City Center
08:32PM 38.4472 -88.3183 285° West 392 451 36,000  Level Kansas City Center
08:33PM 38.4792 -88.4806 284° West 392 451 36,000  Level Kansas City Center
08:34PM 38.5067 -88.6147 285° West 390 449 36,000  Level Kansas City Center
08:35PM 38.5342 -88.7536 284° West 391 450 36,000  Level Kansas City Center
08:36PM 38.5603 -88.8867 284° West 388 447 36,000  Level Kansas City Center
08:37PM 38.5892 -89.0297 285° West 387 445 36,000  Level Kansas City Center
08:38PM 38.6144 -89.1614 284° West 384 442 36,000  Level Kansas City Center
08:39PM 38.6403 -89.2922 284° West 381 438 36,000  Level Kansas City Center
08:40PM 38.6675 -89.4331 284° West 380 437 36,000  Level Kansas City Center
08:41PM 38.6925 -89.5636 284° West 380 437 36,000  Level Kansas City Center
08:42PM 38.7158 -89.6844 284° West 381 438 36,000  Level Kansas City Center
08:43PM 38.7386 -89.8156 283° West 381 438 36,000  Level Kansas City Center
08:44PM 38.7686 -89.9756 284° West 385 443 36,000  Level Kansas City Center
08:45PM 38.7936 -90.1075 284° West 386 444 36,000  Level Kansas City Center
08:46PM 38.8156 -90.2419 282° West 387 445 36,000  Level Kansas City Center
08:47PM 38.8453 -90.3800 285° West 391 450 36,000  Level Kansas City Center
08:48PM 38.8686 -90.5156 283° West 392 451 36,000  Level Kansas City Center
08:49PM 38.8811 -90.6467 277° West 376 433 36,000  Level Kansas City Center
08:50PM 38.8986 -90.7969 279° West 377 434 36,000  Level Kansas City Center
08:52PM 38.9142 -90.9294 279° West 378 435 36,000  Level Kansas City Center
08:53PM 38.9289 -91.0617 278° West 377 434 36,000  Level Kansas City Center
08:54PM 38.9439 -91.1922 278° West 374 430 36,000  Level Kansas City Center
08:55PM 38.9589 -91.3242 278° West 374 430 36,000  Level Kansas City Center
08:56PM 38.9725 -91.4553 278° West 372 428 36,000  Level Kansas City Center
08:57PM 38.9903 -91.6119 278° West 372 428 36,000  Level Kansas City Center
08:58PM 39.0025 -91.7294 278° West 371 427 36,000  Level Kansas City Center
08:59PM 39.0194 -91.8861 278° West 370 426 36,000  Level Kansas City Center
09:00PM 39.0328 -92.0175 277° West 370 426 36,000  Level Kansas City Center
09:01PM 39.0456 -92.1456 277° West 365 420 36,000  Level Kansas City Center
09:02PM 39.0594 -92.2744 278° West 365 420 36,000  Level Kansas City Center
09:03PM 39.0725 -92.4031 277° West 364 419 36,000  Level Kansas City Center
09:04PM 39.0850 -92.5319 277° West 363 418 36,000  Level Kansas City Center
09:05PM 39.0978 -92.6597 277° West 362 417 36,000  Level Kansas City Center
09:06PM 39.1108 -92.7944 277° West 365 420 36,000  Level Kansas City Center
09:07PM 39.1239 -92.9250 277° West 367 422 36,000  Level Kansas City Center
09:08PM 39.1367 -93.0569 277° West 371 427 36,000  Level Kansas City Center
09:09PM 39.1514 -93.2119 277° West 368 423 36,000  Level Kansas City Center
09:10PM 39.1633 -93.3436 277° West 370 426 36,000  Level Kansas City Center
09:11PM 39.1753 -93.4722 277° West 371 427 36,000  Level Kansas City Center
09:12PM 39.1806 -93.5958 273° West 362 417 36,000  Level Kansas City Center
09:13PM 39.1781 -93.7386 269° West 356 410 36,000  Level Kansas City Center
09:14PM 39.1772 -93.8603 270° West 354 407 36,000  Level Kansas City Center
09:15PM 39.1767 -94.0031 270° West 357 411 36,000  Level Kansas City Center
09:16PM 39.1750 -94.1256 269° West 357 411 36,000  Level Kansas City Center
09:17PM 39.1739 -94.2678 269° West 356 410 36,000  Level Kansas City Center
09:18PM 39.1722 -94.3892 269° West 355 409 36,000  Level Kansas City Center
09:19PM 39.1706 -94.5100 269° West 352 405 36,000  Level Kansas City Center
09:20PM 39.1681 -94.6497 269° West 350 403 36,000  Level Kansas City Center
09:21PM 39.1661 -94.7708 269° West 354 407 36,000  Level Kansas City Center
09:22PM 39.1650 -94.9108 269° West 350 403 36,000  Level Kansas City Center
09:23PM 39.1628 -95.0289 269° West 345 397 36,000  Level Kansas City Center
09:24PM 39.1600 -95.1619 268° West 350 403 36,000  Level Kansas City Center
09:25PM 39.1581 -95.2958 269° West 349 402 36,000  Level Kansas City Center
09:26PM 39.1553 -95.4231 268° West 356 410 36,000  Level Kansas City Center
09:27PM 39.1533 -95.5414 269° West 359 413 36,000  Level Kansas City Center
09:28PM 39.1500 -95.6858 268° West 361 415 36,000  Level Kansas City Center
09:29PM 39.1472 -95.8094 268° West 361 415 36,000  Level Kansas City Center
09:31PM 39.1447 -95.9344 269° West 364 419 36,000  Level Kansas City Center
09:32PM 39.1408 -96.0817 268° West 369 425 36,000  Level Kansas City Center
09:33PM 39.1375 -96.2086 268° West 370 426 36,000  Level Kansas City Center
09:34PM 39.1328 -96.3608 268° West 379 436 36,000  Level Kansas City Center
09:35PM 39.1292 -96.4914 268° West 382 440 36,000  Level Kansas City Center
09:36PM 39.1261 -96.6242 268° West 385 443 36,000  Level Kansas City Center
09:37PM 39.1206 -96.7775 267° West 385 443 36,000  Level Kansas City Center
09:38PM 39.1164 -96.9092 268° West 385 443 36,000  Level Kansas City Center
09:39PM 39.1111 -97.0647 268° West 388 447 36,000  Level Kansas City Center
09:40PM 39.1056 -97.1983 267° West 390 449 36,000  Level Kansas City Center
09:41PM 39.1008 -97.3325 267° West 391 450 36,000  Level Kansas City Center
09:42PM 39.0947 -97.4864 267° West 387 445 36,000  Level Kansas City Center
09:43PM 39.0900 -97.6203 267° West 390 449 36,000  Level Kansas City Center
09:44PM 39.0833 -97.7778 267° West 394 453 36,000  Level Kansas City Center
09:45PM 39.0781 -97.9161 267° West 392 451 36,000  Level Kansas City Center
09:46PM 39.0717 -98.0564 267° West 391 450 36,000  Level Kansas City Center
09:47PM 39.0656 -98.2008 267° West 399 459 36,000  Level Kansas City Center
09:48PM 39.0594 -98.3431 267° West 400 460 36,000  Level Kansas City Center
09:49PM 39.0528 -98.4847 267° West 399 459 36,000  Level Kansas City Center
09:50PM 39.0464 -98.6278 267° West 401 461 36,000  Level Kansas City Center
09:51PM 39.0397 -98.7714 267° West 403 464 36,000  Level Kansas City Center
09:52PM 39.0314 -98.9156 266° West 405 466 36,000  Level Kansas City Center
09:53PM 39.0231 -99.0869 266° West 404 465 36,000  Level Kansas City Center
09:54PM 39.0161 -99.2314 267° West 406 467 36,000  Level Kansas City Center
09:55PM 39.0089 -99.3772 266° West 409 471 36,000  Level Kansas City Center
09:56PM 39.0014 -99.5242 266° West 412 474 36,000  Level Kansas City Center
09:57PM 38.9917 -99.6675 265° West 414 476 36,000  Level Kansas City Center
09:58PM 38.9825 -99.8342 266° West 418 481 36,000  Level Kansas City Center
09:59PM 38.9736 -99.9767 265° West 419 482 36,000  Level Kansas City Center
10:00PM 38.9628 -100.1419 265° West 418 481 36,000  Level Kansas City Center
10:01PM 38.9544 -100.2847 266° West 418 481 36,000  Level Kansas City Center
10:02PM 38.9458 -100.4283 266° West 421 484 36,000  Level Kansas City Center
10:03PM 38.9342 -100.5956 265° West 422 486 36,000  Level Kansas City Center
10:04PM 38.9250 -100.7369 265° West 420 483 36,000  Level Kansas City Center
10:05PM 38.9136 -100.9036 265° West 419 482 36,000 -540 Level Kansas City Center
10:07PM 38.8986 -101.1156 265° West 421 484 34,700 -840 Descending Denver Center
10:08PM 38.8886 -101.2578 265° West 420 483 34,000 -360 Descending Denver Center
10:09PM 38.8772 -101.4244 265° West 421 484 34,000  Level Denver Center
10:10PM 38.8672 -101.5678 265° West 422 486 34,000  Level Denver Center
10:11PM 38.8539 -101.7342 264° West 421 484 34,000  Level Denver Center
10:12PM 38.8483 -101.8794 267° West 424 488 34,000  Level Denver Center
10:13PM 38.8456 -102.0486 269° West 427 491 34,000  Level Denver Center
10:14PM 38.8697 -102.1861 283° West 413 475 34,000 -540 Level Denver Center
10:15PM 38.9131 -102.3433 290° West 418 481 32,900 -1,020 Descending Denver Center
10:16PM 38.9514 -102.4778 290° West 420 483 32,000 -900 Descending Denver Center
10:17PM 38.9903 -102.6142 290° West 423 487 31,100 -1,020 Descending Denver Center
10:18PM 39.0328 -102.7697 289° West 423 487 30,000 -1,080 Descending Denver Center
10:19PM 39.0717 -102.9108 290° West 418 481 29,000 -1,020 Descending Denver Center
10:20PM 39.1100 -103.0519 289° West 418 481 28,000 -1,020 Descending Denver Center
10:21PM 39.1489 -103.1900 290° West 413 475 27,000 -1,140 Descending Denver Center
10:22PM 39.1919 -103.3533 289° West 406 467 25,700 -1,680 Descending Denver Center
10:23PM 39.2286 -103.4861 290° West 397 457 23,600 -2,100 Descending Denver Center
10:24PM 39.2625 -103.6144 289° West 384 442 21,500 -2,040 Descending Denver Center
10:25PM 39.3011 -103.7369 292° West 375 432 19,500 -1,800 Descending Denver Center
10:26PM 39.3547 -103.8475 302° West 365 420 17,800 -1,380 Descending Denver Center
10:27PM 39.3992 -103.9669 296° West 340 391 16,700 -1,320 Descending Denver Center
10:28PM 39.4025 -104.0783 272° West 311 358 15,200 -1,560 Descending Denver Center
10:29PM 39.4081 -104.1944 274° West 302 348 13,600 -1,560 Descending Denver Center
10:30PM 39.4117 -104.2972 273° West 290 334 12,100 -1,260 Descending Denver Center
10:31PM 39.4164 -104.3978 274° West 283 326 11,000 -540 Descending Denver Center
10:32PM 39.4214 -104.4914 274° West 247 284 11,000  Level Denver Center
10:33PM 39.4514 -104.5686 297° West 243 280 11,000 -240 Level Denver Center
10:34PM 39.4897 -104.6328 308° West 226 260 10,600 -840 Descending Denver Center
10:35PM 39.5472 -104.6633 338° Northwest 207 238 9,400 -840 Descending Denver Center
10:36PM 39.6031 -104.6633 360° North 201 231 9,000 -360 Descending Denver Center
10:38PM 39.6581 -104.6625 North 199 229 8,700 -780 Descending Denver Center
10:39PM 39.7206 -104.6619 360° North 207 238 7,500 -1,080 Descending Denver Center
10:40PM 39.7758 -104.6614 360° North 201 231 6,500 -1,020 Descending Denver Center
10:41PM 39.8286 -104.6611 360° North 193 222 5,500 -1,020 Descending Denver Center